M/V Yutaka — DSOU3 — position and weather

sailwx.info

Track history (hours):
 
Tides and Currents Weather Stations Pressure Air Temp Water Temp Dewpoint Dewpoint Depression Visibility Wind Speed Wind Dir Waves Ship Positions

M/V Yutaka

Last reported at 2018-Jan-21 22:35 UTC. Time now 2018-Jan-23 06:06 UTC.
Position N 34°23' E 130°16'.

Length 73 m; draft 5.1 m.

Type: Cargo ship. MMSI: 440341000.

Date/timePositionNaut miles runAvg speedWind from/ knotsBaromVisibWave heightAir tempDewpointWater temp
2018-Jan-21 22:35N 34°23' E 130°16'1 7.9
2018-Jan-21 22:29N 34°22' E 130°16'4 8.2
2018-Jan-21 22:00N 34°20' E 130°20'4 8.2
2018-Jan-21 21:29N 34°17' E 130°24'4 8.3
2018-Jan-21 21:00N 34°15' E 130°28'4 8.1
2018-Jan-21 20:30N 34°13' E 130°32'4 8.1
2018-Jan-21 20:00N 34°10' E 130°36'4 8.1
2018-Jan-21 19:30N 34°08' E 130°40'4 8.0
2018-Jan-21 19:01N 34°05' E 130°44'4 8.4
2018-Jan-21 18:30N 34°03' E 130°48'4 8.5
2018-Jan-21 18:00N 34°01' E 130°52'4 7.8
2018-Jan-21 17:30N 33°57' E 130°52'3 6.7
2018-Jan-21 17:00N 33°55' E 130°56'5 9.6
2018-Jan-21 16:31N 33°59' E 130°60'4 8.5
2018-Jan-21 16:00N 33°57' E 131°04'4 8.6
2018-Jan-21 15:30N 33°54' E 131°08'4 8.5
2018-Jan-21 15:01N 33°52' E 131°13'4 8.8
2018-Jan-21 14:30N 33°51' E 131°18'5 9.1
2018-Jan-21 13:58N 33°50' E 131°24'4 9.2
2018-Jan-21 13:30N 33°49' E 131°29'9 9.2
2018-Jan-21 12:30N 33°47' E 131°39'4 8.6
2018-Jan-21 12:00N 33°45' E 131°44'5 9.2
2018-Jan-21 11:30N 33°41' E 131°46'5 9.7
2018-Jan-21 10:59N 33°36' E 131°49'5 9.5
2018-Jan-21 10:30N 33°32' E 131°52'6 9.1
2018-Jan-21 09:53N 33°27' E 131°54'4 8.8
2018-Jan-21 09:28N 33°23' E 131°56'4 8.8
2018-Jan-21 09:00N 33°20' E 131°59'320 7.3
2018-Jan-19 13:19N 34°32' E 138°15'8 8.5
2018-Jan-19 12:23N 34°32' E 138°24'10 8.8
2018-Jan-19 11:18N 34°33' E 138°36'12 8.8
2018-Jan-19 09:59N 34°33' E 138°50'4 8.4
2018-Jan-19 09:30N 34°33' E 138°55'4 7.1
2018-Jan-19 08:59N 34°35' E 138°59'4 8.9
2018-Jan-19 08:30N 34°38' E 139°03'4 7.9
2018-Jan-19 07:56N 34°41' E 139°06'4 7.8
2018-Jan-19 07:23N 34°44' E 139°10'3 8.1
2018-Jan-19 07:00N 34°46' E 139°13'19 7.6
2018-Jan-19 04:31N 34°59' E 139°30'0 8.0
2018-Jan-19 04:29N 34°59' E 139°30'4 8.7
2018-Jan-19 04:00N 35°02' E 139°34'4 8.8
2018-Jan-19 03:30N 35°05' E 139°38'4 8.9
2018-Jan-19 03:00N 35°08' E 139°42'5 8.8
2018-Jan-19 02:30N 35°11' E 139°45'4 9.1
2018-Jan-19 02:00N 35°16' E 139°46'5 9.5
2018-Jan-19 01:30N 35°19' E 139°43'5 9.1
2018-Jan-19 01:00N 35°24' E 139°43'4 7.7
2018-Jan-19 00:31N 35°25' E 139°48'4 8.7
2018-Jan-19 00:00N 35°22' E 139°52'1 1.9
2018-Jan-18 23:29N 35°22' E 139°53'0 0.0
2018-Jan-18 22:59N 35°22' E 139°53'0 0.0
2018-Jan-18 22:29N 35°22' E 139°53'0 0.0
2018-Jan-18 21:50N 35°22' E 139°53'0 0.0
2018-Jan-18 21:29N 35°22' E 139°53'0 0.0
2018-Jan-18 20:47N 35°22' E 139°53'0 0.0
2018-Jan-18 20:29N 35°22' E 139°53'0 0.0
2018-Jan-18 19:59N 35°22' E 139°53'0 0.0
2018-Jan-18 19:26N 35°22' E 139°53'0 0.0
2018-Jan-18 18:59N 35°22' E 139°53'0 0.0
2018-Jan-18 18:29N 35°22' E 139°53'0 0.0
2018-Jan-18 17:59N 35°22' E 139°53'0 0.0
2018-Jan-18 17:29N 35°22' E 139°53'0 0.0
2018-Jan-18 16:59N 35°22' E 139°53'0 0.0
2018-Jan-18 16:29N 35°22' E 139°53'0 0.0
2018-Jan-18 15:53N 35°22' E 139°53'0 0.0
2018-Jan-18 15:29N 35°22' E 139°53'0 0.0
2018-Jan-18 14:59N 35°22' E 139°53'0 0.0
2018-Jan-18 14:29N 35°22' E 139°53'0 0.0
2018-Jan-18 13:59N 35°22' E 139°53'0 0.0
2018-Jan-18 13:29N 35°22' E 139°53'0 0.0
2018-Jan-18 12:59N 35°22' E 139°53'0 0.0
2018-Jan-18 12:23N 35°22' E 139°53'0 0.0
2018-Jan-18 11:59N 35°22' E 139°53'0 0.0
2018-Jan-18 11:29N 35°22' E 139°53'0 0.0
2018-Jan-18 10:59N 35°22' E 139°53'0 0.0
2018-Jan-18 10:26N 35°22' E 139°53'0 0.0
2018-Jan-18 09:59N 35°22' E 139°53'0 0.0
2018-Jan-18 09:29N 35°22' E 139°53'0 0.0
2018-Jan-18 08:59N 35°22' E 139°53'0 0.0
2018-Jan-18 08:29N 35°22' E 139°53'0 0.0
2018-Jan-18 07:59N 35°22' E 139°53'0 0.0
2018-Jan-18 07:29N 35°22' E 139°53'0 0.0
2018-Jan-18 06:59N 35°22' E 139°53'0 0.0
2018-Jan-18 06:29N 35°22' E 139°53'0 0.0
2018-Jan-18 05:59N 35°22' E 139°53'0 0.0
2018-Jan-18 05:29N 35°22' E 139°53'0 0.0
2018-Jan-18 04:56N 35°22' E 139°53'0 0.0
2018-Jan-18 04:29N 35°22' E 139°53'0 0.0
2018-Jan-18 03:59N 35°22' E 139°53'0 0.0
2018-Jan-18 03:30N 35°22' E 139°53'0 0.0
2018-Jan-18 02:59N 35°22' E 139°53'0 0.0
2018-Jan-18 02:08N 35°22' E 139°53'0 0.0
2018-Jan-18 01:53N 35°22' E 139°53'0 0.0
2018-Jan-18 01:29N 35°22' E 139°53'0 0.0
2018-Jan-18 00:56N 35°22' E 139°53'0 0.0
2018-Jan-17 23:56N 35°22' E 139°53'  
Track history (hours):
 
Tides and Currents Weather Stations Pressure Air Temp Water Temp Dewpoint Dewpoint Depression Visibility Wind Speed Wind Dir Waves Ship Positions

M/V Yutaka

Last reported at 2018-Jan-21 22:35 UTC. Time now 2018-Jan-23 06:06 UTC.
Position N 34°23' E 130°16'.

Length 73 m; draft 5.1 m.

Type: Cargo ship. MMSI: 440341000.

Date/timePositionNaut miles runAvg speedWind from/ knotsBaromVisibWave heightAir tempDewpointWater temp
2018-Jan-21 22:35N 34°23' E 130°16'1 7.9
2018-Jan-21 22:29N 34°22' E 130°16'4 8.2
2018-Jan-21 22:00N 34°20' E 130°20'4 8.2
2018-Jan-21 21:29N 34°17' E 130°24'4 8.3
2018-Jan-21 21:00N 34°15' E 130°28'4 8.1
2018-Jan-21 20:30N 34°13' E 130°32'4 8.1
2018-Jan-21 20:00N 34°10' E 130°36'4 8.1
2018-Jan-21 19:30N 34°08' E 130°40'4 8.0
2018-Jan-21 19:01N 34°05' E 130°44'4 8.4
2018-Jan-21 18:30N 34°03' E 130°48'4 8.5
2018-Jan-21 18:00N 34°01' E 130°52'4 7.8
2018-Jan-21 17:30N 33°57' E 130°52'3 6.7
2018-Jan-21 17:00N 33°55' E 130°56'5 9.6
2018-Jan-21 16:31N 33°59' E 130°60'4 8.5
2018-Jan-21 16:00N 33°57' E 131°04'4 8.6
2018-Jan-21 15:30N 33°54' E 131°08'4 8.5
2018-Jan-21 15:01N 33°52' E 131°13'4 8.8
2018-Jan-21 14:30N 33°51' E 131°18'5 9.1
2018-Jan-21 13:58N 33°50' E 131°24'4 9.2
2018-Jan-21 13:30N 33°49' E 131°29'9 9.2
2018-Jan-21 12:30N 33°47' E 131°39'4 8.6
2018-Jan-21 12:00N 33°45' E 131°44'5 9.2
2018-Jan-21 11:30N 33°41' E 131°46'5 9.7
2018-Jan-21 10:59N 33°36' E 131°49'5 9.5
2018-Jan-21 10:30N 33°32' E 131°52'6 9.1
2018-Jan-21 09:53N 33°27' E 131°54'4 8.8
2018-Jan-21 09:28N 33°23' E 131°56'4 8.8
2018-Jan-21 09:00N 33°20' E 131°59'320 7.3
2018-Jan-19 13:19N 34°32' E 138°15'8 8.5
2018-Jan-19 12:23N 34°32' E 138°24'10 8.8
2018-Jan-19 11:18N 34°33' E 138°36'12 8.8
2018-Jan-19 09:59N 34°33' E 138°50'4 8.4
2018-Jan-19 09:30N 34°33' E 138°55'4 7.1
2018-Jan-19 08:59N 34°35' E 138°59'4 8.9
2018-Jan-19 08:30N 34°38' E 139°03'4 7.9
2018-Jan-19 07:56N 34°41' E 139°06'4 7.8
2018-Jan-19 07:23N 34°44' E 139°10'3 8.1
2018-Jan-19 07:00N 34°46' E 139°13'19 7.6
2018-Jan-19 04:31N 34°59' E 139°30'0 8.0
2018-Jan-19 04:29N 34°59' E 139°30'4 8.7
2018-Jan-19 04:00N 35°02' E 139°34'4 8.8
2018-Jan-19 03:30N 35°05' E 139°38'4 8.9
2018-Jan-19 03:00N 35°08' E 139°42'5 8.8
2018-Jan-19 02:30N 35°11' E 139°45'4 9.1
2018-Jan-19 02:00N 35°16' E 139°46'5 9.5
2018-Jan-19 01:30N 35°19' E 139°43'5 9.1
2018-Jan-19 01:00N 35°24' E 139°43'4 7.7
2018-Jan-19 00:31N 35°25' E 139°48'4 8.7
2018-Jan-19 00:00N 35°22' E 139°52'1 1.9
2018-Jan-18 23:29N 35°22' E 139°53'0 0.0
2018-Jan-18 22:59N 35°22' E 139°53'0 0.0
2018-Jan-18 22:29N 35°22' E 139°53'0 0.0
2018-Jan-18 21:50N 35°22' E 139°53'0 0.0
2018-Jan-18 21:29N 35°22' E 139°53'0 0.0
2018-Jan-18 20:47N 35°22' E 139°53'0 0.0
2018-Jan-18 20:29N 35°22' E 139°53'0 0.0
2018-Jan-18 19:59N 35°22' E 139°53'0 0.0
2018-Jan-18 19:26N 35°22' E 139°53'0 0.0
2018-Jan-18 18:59N 35°22' E 139°53'0 0.0
2018-Jan-18 18:29N 35°22' E 139°53'0 0.0
2018-Jan-18 17:59N 35°22' E 139°53'0 0.0
2018-Jan-18 17:29N 35°22' E 139°53'0 0.0
2018-Jan-18 16:59N 35°22' E 139°53'0 0.0
2018-Jan-18 16:29N 35°22' E 139°53'0 0.0
2018-Jan-18 15:53N 35°22' E 139°53'0 0.0
2018-Jan-18 15:29N 35°22' E 139°53'0 0.0
2018-Jan-18 14:59N 35°22' E 139°53'0 0.0
2018-Jan-18 14:29N 35°22' E 139°53'0 0.0
2018-Jan-18 13:59N 35°22' E 139°53'0 0.0
2018-Jan-18 13:29N 35°22' E 139°53'0 0.0
2018-Jan-18 12:59N 35°22' E 139°53'0 0.0
2018-Jan-18 12:23N 35°22' E 139°53'0 0.0
2018-Jan-18 11:59N 35°22' E 139°53'0 0.0
2018-Jan-18 11:29N 35°22' E 139°53'0 0.0
2018-Jan-18 10:59N 35°22' E 139°53'0 0.0
2018-Jan-18 10:26N 35°22' E 139°53'0 0.0
2018-Jan-18 09:59N 35°22' E 139°53'0 0.0
2018-Jan-18 09:29N 35°22' E 139°53'0 0.0
2018-Jan-18 08:59N 35°22' E 139°53'0 0.0
2018-Jan-18 08:29N 35°22' E 139°53'0 0.0
2018-Jan-18 07:59N 35°22' E 139°53'0 0.0
2018-Jan-18 07:29N 35°22' E 139°53'0 0.0
2018-Jan-18 06:59N 35°22' E 139°53'0 0.0
2018-Jan-18 06:29N 35°22' E 139°53'0 0.0
2018-Jan-18 05:59N 35°22' E 139°53'0 0.0
2018-Jan-18 05:29N 35°22' E 139°53'0 0.0
2018-Jan-18 04:56N 35°22' E 139°53'0 0.0
2018-Jan-18 04:29N 35°22' E 139°53'0 0.0
2018-Jan-18 03:59N 35°22' E 139°53'0 0.0
2018-Jan-18 03:30N 35°22' E 139°53'0 0.0
2018-Jan-18 02:59N 35°22' E 139°53'0 0.0
2018-Jan-18 02:08N 35°22' E 139°53'0 0.0
2018-Jan-18 01:53N 35°22' E 139°53'0 0.0
2018-Jan-18 01:29N 35°22' E 139°53'0 0.0
2018-Jan-18 00:56N 35°22' E 139°53'0 0.0
2018-Jan-17 23:56N 35°22' E 139°53'  

Dump ship's entire track history